Time;durP1;ratioP1;P1;durP2;ratioP2;P2;SDS_P1;SDS_P2;PMS_P1;PMS_P2;Temp;Humidity;BMP_temperature;BMP_pressure;BME280_temperature;BME280_humidity;BME280_pressure;Samples;Min_cycle;Max_cycle;Signal;HPM_P1;HPM_P2
2022/04/11 00:00:47;;;;;;;3.75;2.80;;;;;;;;;;5074126;28;20079;-27
2022/04/11 00:03:13;;;;;;;6.03;2.90;;;;;;;;;;5075015;28;20090;-28
2022/04/11 00:05:39;;;;;;;3.05;2.70;;;;;;;;;;5070131;28;20040;-28
2022/04/11 00:08:06;;;;;;;4.53;2.95;;;;;;;;;;5056895;28;20424;-26
2022/04/11 00:10:32;;;;;;;4.50;2.70;;;;;;;;;;5072777;28;20048;-27
2022/04/11 00:13:06;;;;;;;4.28;2.70;;;;;;;;;;5074555;28;20044;-29
2022/04/11 00:15:38;;;;;;;2.78;2.55;;;;;;;;;;5072965;28;20040;-31
2022/04/11 00:18:05;;;;;;;3.42;2.80;;;;;;;;;;5074078;28;20040;-31
2022/04/11 00:20:31;;;;;;;4.00;2.70;;;;;;;;;;5073394;28;20085;-31
2022/04/11 00:22:58;;;;;;;4.07;2.55;;;;;;;;;;5074190;28;20063;-30
2022/04/11 00:25:24;;;;;;;3.50;2.25;;;;;;;;;;5073504;28;20048;-30
2022/04/11 00:27:52;;;;;;;3.20;2.50;;;;;;;;;;5056293;28;20114;-30
2022/04/11 00:30:18;;;;;;;3.33;2.75;;;;;;;;;;5073622;28;20095;-30
2022/04/11 00:32:44;;;;;;;4.55;3.08;;;;;;;;;;5073259;28;20403;-30
2022/04/11 00:35:11;;;;;;;3.67;2.95;;;;;;;;;;5073592;28;20268;-30
2022/04/11 00:37:37;;;;;;;4.55;2.90;;;;;;;;;;5073789;28;20043;-30
2022/04/11 00:40:07;;;;;;;3.53;2.65;;;;;;;;;;5073086;28;20046;-30
2022/04/11 00:42:33;;;;;;;4.85;3.15;;;;;;;;;;5073527;28;20181;-29
2022/04/11 00:45:00;;;;;;;3.95;2.92;;;;;;;;;;5073805;28;20040;-29
2022/04/11 00:47:28;;;;;;;3.38;2.70;;;;;;;;;;5074040;28;20425;-30
2022/04/11 00:50:15;;;;;;;3.63;3.00;;;;;;;;;;5072475;28;20036;-31
2022/04/11 00:52:44;;;;;;;3.67;3.13;;;;;;;;;;5053214;28;20087;-29
2022/04/11 00:55:10;;;;;;;3.55;3.17;;;;;;;;;;5053591;28;20116;-30
2022/04/11 00:57:37;;;;;;;6.30;3.95;;;;;;;;;;5055145;28;20248;-30
2022/04/11 01:00:07;;;;;;;4.85;3.28;;;;;;;;;;5073669;28;20044;-29
2022/04/11 01:02:34;;;;;;;4.68;3.55;;;;;;;;;;5071580;28;20208;-29
2022/04/11 01:05:00;;;;;;;4.68;3.13;;;;;;;;;;5074249;28;20041;-26
2022/04/11 01:07:26;;;;;;;4.30;3.30;;;;;;;;;;5075088;28;20040;-28
2022/04/11 01:09:53;;;;;;;5.32;3.17;;;;;;;;;;5074545;28;20075;-27
2022/04/11 01:12:20;;;;;;;3.95;3.10;;;;;;;;;;5074199;28;20053;-27
2022/04/11 01:14:46;;;;;;;3.38;2.70;;;;;;;;;;5074328;28;20568;-27
2022/04/11 01:17:12;;;;;;;4.30;3.08;;;;;;;;;;5073820;28;20036;-27
2022/04/11 01:19:38;;;;;;;4.90;2.80;;;;;;;;;;5074171;28;20055;-27
2022/04/11 01:22:05;;;;;;;4.38;2.78;;;;;;;;;;5073621;28;20045;-27
2022/04/11 01:24:31;;;;;;;4.75;3.28;;;;;;;;;;5073815;28;20119;-26
2022/04/11 01:26:57;;;;;;;3.20;2.95;;;;;;;;;;5074031;28;20101;-26
2022/04/11 01:29:24;;;;;;;4.43;2.83;;;;;;;;;;5074907;28;20037;-27
2022/04/11 01:31:50;;;;;;;3.67;3.10;;;;;;;;;;5074101;28;20041;-26
2022/04/11 01:34:16;;;;;;;5.35;2.90;;;;;;;;;;5073588;28;20037;-29
2022/04/11 01:36:42;;;;;;;4.50;2.70;;;;;;;;;;5073477;28;20127;-27
2022/04/11 01:39:08;;;;;;;3.42;2.70;;;;;;;;;;5073462;28;20039;-28
2022/04/11 01:41:34;;;;;;;6.32;3.13;;;;;;;;;;5073750;28;20402;-28
2022/04/11 01:44:01;;;;;;;4.32;3.05;;;;;;;;;;5073363;28;20094;-26
2022/04/11 01:46:27;;;;;;;6.45;2.85;;;;;;;;;;5073748;28;20509;-29
2022/04/11 01:48:53;;;;;;;3.72;2.85;;;;;;;;;;5055638;28;20076;-28
2022/04/11 01:51:19;;;;;;;4.68;2.83;;;;;;;;;;5073701;28;20048;-28
2022/04/11 01:53:45;;;;;;;5.35;2.85;;;;;;;;;;5055490;28;20097;-27
2022/04/11 01:56:11;;;;;;;3.67;3.20;;;;;;;;;;5073440;28;20043;-27
2022/04/11 01:58:37;;;;;;;5.10;3.40;;;;;;;;;;5055789;28;20048;-27
2022/04/11 02:01:04;;;;;;;3.40;2.65;;;;;;;;;;5072906;28;20040;-28
2022/04/11 02:03:30;;;;;;;3.22;2.70;;;;;;;;;;5054897;28;20394;-27
2022/04/11 02:05:56;;;;;;;3.30;2.40;;;;;;;;;;5055259;28;20040;-28
2022/04/11 02:08:23;;;;;;;5.10;2.80;;;;;;;;;;5073262;28;20516;-27
2022/04/11 02:10:49;;;;;;;6.22;3.15;;;;;;;;;;5073033;28;20119;-27
2022/04/11 02:13:15;;;;;;;3.28;2.60;;;;;;;;;;5054702;28;20051;-27
2022/04/11 02:15:41;;;;;;;5.95;3.08;;;;;;;;;;5073033;28;20045;-27
2022/04/11 02:18:07;;;;;;;5.22;2.85;;;;;;;;;;5072974;28;20036;-27
2022/04/11 02:20:34;;;;;;;3.42;2.65;;;;;;;;;;5072603;28;20179;-27
2022/04/11 02:23:00;;;;;;;3.10;2.80;;;;;;;;;;5072633;28;20410;-27
2022/04/11 02:25:28;;;;;;;4.72;2.88;;;;;;;;;;5072890;28;20494;-27
2022/04/11 02:27:54;;;;;;;4.80;2.95;;;;;;;;;;5072827;28;20036;-27
2022/04/11 02:30:23;;;;;;;3.83;3.17;;;;;;;;;;5072348;28;20076;-27
2022/04/11 02:32:50;;;;;;;4.13;3.03;;;;;;;;;;5072348;28;20127;-28
2022/04/11 02:35:17;;;;;;;3.72;3.15;;;;;;;;;;5072632;28;20044;-28
2022/04/11 02:37:47;;;;;;;6.18;3.80;;;;;;;;;;5072299;28;20066;-27
2022/04/11 02:40:13;;;;;;;5.53;3.10;;;;;;;;;;5072424;28;20048;-27
2022/04/11 02:42:43;;;;;;;3.20;2.90;;;;;;;;;;5072237;28;20044;-26
2022/04/11 02:45:13;;;;;;;3.72;3.33;;;;;;;;;;5072453;28;20394;-26
2022/04/11 02:47:39;;;;;;;6.20;3.30;;;;;;;;;;5072179;28;20052;-26
2022/04/11 02:50:06;;;;;;;4.93;3.40;;;;;;;;;;5072669;28;20534;-27
2022/04/11 02:52:32;;;;;;;5.28;3.20;;;;;;;;;;5072966;28;20037;-27
2022/04/11 02:54:59;;;;;;;3.08;2.78;;;;;;;;;;5072726;28;20052;-27
2022/04/11 02:57:25;;;;;;;5.07;3.22;;;;;;;;;;5054439;28;20490;-28
2022/04/11 02:59:51;;;;;;;6.75;3.50;;;;;;;;;;5072349;28;20115;-26
2022/04/11 03:02:18;;;;;;;3.67;2.65;;;;;;;;;;5072095;28;20056;-26
2022/04/11 03:04:45;;;;;;;3.85;2.97;;;;;;;;;;5072036;28;20493;-26
2022/04/11 03:07:11;;;;;;;5.03;2.80;;;;;;;;;;5072012;28;20040;-26
2022/04/11 03:09:38;;;;;;;4.53;2.92;;;;;;;;;;5071722;28;20037;-27
2022/04/11 03:12:04;;;;;;;4.68;3.33;;;;;;;;;;5071644;28;20044;-26
2022/04/11 03:14:31;;;;;;;5.07;3.33;;;;;;;;;;5053890;28;20394;-27
2022/04/11 03:16:57;;;;;;;7.55;3.65;;;;;;;;;;5071979;28;20070;-27
2022/04/11 03:19:23;;;;;;;4.15;3.45;;;;;;;;;;5071905;28;20036;-27
2022/04/11 03:21:49;;;;;;;4.18;3.28;;;;;;;;;;5071945;28;20505;-27
2022/04/11 03:24:15;;;;;;;5.85;4.05;;;;;;;;;;5053996;28;20071;-27
2022/04/11 03:26:41;;;;;;;5.07;3.67;;;;;;;;;;5071603;28;20482;-27
2022/04/11 03:29:07;;;;;;;4.85;4.15;;;;;;;;;;5071807;28;20055;-27
2022/04/11 03:31:34;;;;;;;4.35;3.40;;;;;;;;;;5071520;28;20036;-28
2022/04/11 03:34:00;;;;;;;5.47;3.60;;;;;;;;;;5071855;28;20055;-29
2022/04/11 03:36:26;;;;;;;5.38;3.38;;;;;;;;;;5071527;28;20044;-27
2022/04/11 03:38:52;;;;;;;5.07;3.53;;;;;;;;;;5071736;28;20036;-27
2022/04/11 03:41:18;;;;;;;4.32;3.90;;;;;;;;;;5071790;28;20068;-28
2022/04/11 03:43:44;;;;;;;5.35;3.75;;;;;;;;;;5071894;28;20041;-27
2022/04/11 03:46:10;;;;;;;5.75;3.13;;;;;;;;;;5071585;28;20119;-26
2022/04/11 03:48:36;;;;;;;5.43;3.42;;;;;;;;;;5071860;28;20448;-29
2022/04/11 03:51:03;;;;;;;4.07;2.92;;;;;;;;;;5071638;28;20545;-26
2022/04/11 03:53:29;;;;;;;4.88;3.08;;;;;;;;;;5071584;28;20093;-27
2022/04/11 03:55:55;;;;;;;5.03;3.88;;;;;;;;;;5071529;28;20141;-28
2022/04/11 03:58:21;;;;;;;5.93;3.65;;;;;;;;;;5071720;28;20047;-30
2022/04/11 04:00:47;;;;;;;6.47;3.55;;;;;;;;;;5071630;28;20175;-26
2022/04/11 04:03:16;;;;;;;4.40;3.60;;;;;;;;;;5071522;28;20040;-28
2022/04/11 04:05:43;;;;;;;6.82;3.67;;;;;;;;;;5071183;28;20040;-28
2022/04/11 04:08:09;;;;;;;6.18;4.38;;;;;;;;;;5071636;28;20123;-27
2022/04/11 04:10:35;;;;;;;5.88;3.95;;;;;;;;;;5053530;28;20091;-27
2022/04/11 04:13:02;;;;;;;5.53;4.47;;;;;;;;;;5071447;28;20045;-28
2022/04/11 04:15:29;;;;;;;4.53;3.97;;;;;;;;;;5071097;28;20094;-26
2022/04/11 04:17:55;;;;;;;5.90;4.40;;;;;;;;;;5071410;28;20417;-28
2022/04/11 04:20:24;;;;;;;6.25;4.38;;;;;;;;;;5071380;28;20482;-27
2022/04/11 04:22:50;;;;;;;5.63;4.32;;;;;;;;;;5071214;28;20045;-26
2022/04/11 04:25:16;;;;;;;5.78;4.07;;;;;;;;;;5072192;28;20051;-28
2022/04/11 04:27:42;;;;;;;6.60;4.88;;;;;;;;;;5075115;28;20043;-27
2022/04/11 04:30:09;;;;;;;5.63;4.07;;;;;;;;;;5075446;28;20045;-27
2022/04/11 04:32:36;;;;;;;5.55;4.07;;;;;;;;;;5075450;28;20080;-27
2022/04/11 04:35:02;;;;;;;7.70;5.60;;;;;;;;;;5075104;28;20041;-26
2022/04/11 04:37:28;;;;;;;8.32;4.88;;;;;;;;;;5075018;28;20071;-27
2022/04/11 04:39:54;;;;;;;6.75;4.70;;;;;;;;;;5075153;28;20505;-27
2022/04/11 04:42:21;;;;;;;7.60;5.00;;;;;;;;;;5075395;28;20044;-27
2022/04/11 04:44:47;;;;;;;7.40;4.40;;;;;;;;;;5075154;28;20059;-26
2022/04/11 04:47:15;;;;;;;7.43;4.72;;;;;;;;;;5075436;28;20142;-29
2022/04/11 04:49:42;;;;;;;7.80;5.22;;;;;;;;;;5075429;28;20044;-27
2022/04/11 04:52:08;;;;;;;6.43;5.00;;;;;;;;;;5076169;28;20558;-28
2022/04/11 04:54:34;;;;;;;8.00;5.18;;;;;;;;;;5075672;28;20048;-26
2022/04/11 04:57:00;;;;;;;7.30;5.45;;;;;;;;;;5075089;28;20445;-27
2022/04/11 04:59:26;;;;;;;7.57;5.57;;;;;;;;;;5074588;28;20232;-28
2022/04/11 05:01:52;;;;;;;9.68;5.78;;;;;;;;;;5074906;28;20040;-27
2022/04/11 05:04:19;;;;;;;7.22;5.60;;;;;;;;;;5074673;28;20049;-28
2022/04/11 05:06:45;;;;;;;7.10;6.00;;;;;;;;;;5074649;28;20135;-27
2022/04/11 05:09:11;;;;;;;6.95;6.22;;;;;;;;;;5074496;28;20044;-27
2022/04/11 05:11:37;;;;;;;7.97;5.95;;;;;;;;;;5074204;28;20048;-27
2022/04/11 05:14:03;;;;;;;8.65;6.22;;;;;;;;;;5074405;28;20040;-27
2022/04/11 05:16:29;;;;;;;8.18;5.68;;;;;;;;;;5074658;28;20047;-27
2022/04/11 05:18:56;;;;;;;7.07;5.50;;;;;;;;;;5056590;28;20044;-26
2022/04/11 05:21:22;;;;;;;7.57;6.20;;;;;;;;;;5074171;28;20048;-27
2022/04/11 05:23:48;;;;;;;10.98;6.10;;;;;;;;;;5074395;28;20068;-28
2022/04/11 05:26:14;;;;;;;7.57;5.28;;;;;;;;;;5074322;28;20121;-28
2022/04/11 05:28:40;;;;;;;7.05;5.50;;;;;;;;;;5073961;28;20037;-27
2022/04/11 05:31:06;;;;;;;7.03;5.93;;;;;;;;;;5073791;28;20041;-28
2022/04/11 05:33:32;;;;;;;6.93;5.53;;;;;;;;;;5055949;28;20504;-29
2022/04/11 05:35:59;;;;;;;8.57;6.65;;;;;;;;;;5073801;28;20492;-27
2022/04/11 05:38:25;;;;;;;8.15;5.60;;;;;;;;;;5073719;28;20067;-27
2022/04/11 05:40:51;;;;;;;7.13;5.60;;;;;;;;;;5073789;28;20503;-30
2022/04/11 05:43:17;;;;;;;6.55;5.93;;;;;;;;;;5073716;28;20106;-27
2022/04/11 05:45:43;;;;;;;10.75;5.70;;;;;;;;;;5073293;28;20036;-27
2022/04/11 05:48:10;;;;;;;5.57;5.07;;;;;;;;;;5073547;28;20045;-27
2022/04/11 05:50:36;;;;;;;7.82;5.93;;;;;;;;;;5073373;28;20089;-27
2022/04/11 05:53:03;;;;;;;6.47;5.15;;;;;;;;;;5073492;28;20032;-27
2022/04/11 05:55:29;;;;;;;6.75;5.53;;;;;;;;;;5073257;28;20044;-28
2022/04/11 05:57:56;;;;;;;6.53;5.53;;;;;;;;;;5055276;28;20032;-27
2022/04/11 06:00:22;;;;;;;7.85;6.32;;;;;;;;;;5073155;28;20128;-27
2022/04/11 06:02:48;;;;;;;6.82;5.00;;;;;;;;;;5073273;28;20068;-27
2022/04/11 06:05:15;;;;;;;7.50;5.53;;;;;;;;;;5073390;28;20069;-30
2022/04/11 06:07:41;;;;;;;7.18;5.70;;;;;;;;;;5074055;28;20063;-27
2022/04/11 06:10:08;;;;;;;8.10;6.10;;;;;;;;;;5073369;28;20038;-27
2022/04/11 06:12:34;;;;;;;7.18;5.72;;;;;;;;;;5073189;28;20275;-29
2022/04/11 06:15:01;;;;;;;6.80;5.35;;;;;;;;;;5071881;28;20493;-27
2022/04/11 06:17:27;;;;;;;8.27;6.60;;;;;;;;;;5070477;28;20475;-28
2022/04/11 06:19:54;;;;;;;7.65;6.60;;;;;;;;;;5070409;28;20036;-28
2022/04/11 06:22:20;;;;;;;7.45;5.90;;;;;;;;;;5070289;28;20401;-27
2022/04/11 06:24:48;;;;;;;7.78;6.18;;;;;;;;;;5070770;28;20044;-27
2022/04/11 06:27:15;;;;;;;6.45;5.70;;;;;;;;;;5070313;28;20124;-27
2022/04/11 06:29:41;;;;;;;7.68;6.78;;;;;;;;;;5070126;28;20417;-29
2022/04/11 06:32:07;;;;;;;6.28;5.60;;;;;;;;;;5072174;28;20048;-28
2022/04/11 06:34:33;;;;;;;7.38;6.68;;;;;;;;;;5072683;28;20043;-29
2022/04/11 06:37:01;;;;;;;8.13;6.13;;;;;;;;;;5073025;28;20052;-27
2022/04/11 06:39:27;;;;;;;8.15;6.50;;;;;;;;;;5072969;28;20128;-29
2022/04/11 06:41:53;;;;;;;7.32;6.15;;;;;;;;;;5072714;28;20075;-28
2022/04/11 06:44:19;;;;;;;7.00;6.10;;;;;;;;;;5072474;28;20044;-27
2022/04/11 06:46:46;;;;;;;8.65;6.28;;;;;;;;;;5072644;28;20041;-28
2022/04/11 06:49:12;;;;;;;6.80;6.10;;;;;;;;;;5072252;28;20044;-28
2022/04/11 06:51:46;;;;;;;6.45;5.70;;;;;;;;;;5073113;28;20048;-28
2022/04/11 06:54:12;;;;;;;6.97;5.90;;;;;;;;;;5072631;28;20032;-29
2022/04/11 06:56:38;;;;;;;7.20;5.95;;;;;;;;;;5072302;28;20043;-26
2022/04/11 06:59:04;;;;;;;7.07;6.25;;;;;;;;;;5072023;28;20397;-27
2022/04/11 07:01:30;;;;;;;6.95;6.15;;;;;;;;;;5071809;28;20040;-28
2022/04/11 07:03:57;;;;;;;6.60;5.85;;;;;;;;;;5071997;28;20062;-27
2022/04/11 07:06:23;;;;;;;7.15;5.57;;;;;;;;;;5053751;28;20071;-27
2022/04/11 07:08:49;;;;;;;8.13;6.18;;;;;;;;;;5071461;28;20032;-26
2022/04/11 07:11:15;;;;;;;8.18;7.18;;;;;;;;;;5071838;28;20035;-28
2022/04/11 07:13:41;;;;;;;12.88;6.40;;;;;;;;;;5071780;28;20131;-28
2022/04/11 07:16:07;;;;;;;7.60;6.80;;;;;;;;;;5072470;28;20044;-27
2022/04/11 07:18:35;;;;;;;7.28;6.57;;;;;;;;;;5071813;28;20444;-27
2022/04/11 07:21:02;;;;;;;7.05;6.25;;;;;;;;;;5072064;28;20457;-27
2022/04/11 07:23:28;;;;;;;8.10;6.05;;;;;;;;;;5071688;28;20041;-28
2022/04/11 07:25:54;;;;;;;7.28;5.93;;;;;;;;;;5071738;28;20102;-29
2022/04/11 07:28:20;;;;;;;10.50;7.47;;;;;;;;;;5071881;28;20044;-28
2022/04/11 07:30:46;;;;;;;9.48;7.43;;;;;;;;;;5071743;28;20481;-28
2022/04/11 07:33:12;;;;;;;9.30;8.02;;;;;;;;;;5071479;28;20110;-28
2022/04/11 07:35:38;;;;;;;10.75;8.27;;;;;;;;;;5072055;28;20495;-27
2022/04/11 07:38:04;;;;;;;8.57;7.38;;;;;;;;;;5071798;28;20127;-29
2022/04/11 07:40:31;;;;;;;9.60;7.90;;;;;;;;;;5071811;28;20516;-28
2022/04/11 07:42:57;;;;;;;7.72;6.63;;;;;;;;;;5071885;28;20052;-27
2022/04/11 07:45:24;;;;;;;13.35;8.05;;;;;;;;;;5072187;28;20482;-28
2022/04/11 07:47:52;;;;;;;8.70;6.55;;;;;;;;;;5072202;28;20083;-29
2022/04/11 07:50:18;;;;;;;7.93;6.50;;;;;;;;;;5072089;28;20058;-27
2022/04/11 07:52:44;;;;;;;12.30;7.28;;;;;;;;;;5071712;28;20041;-28
2022/04/11 07:55:12;;;;;;;11.13;7.47;;;;;;;;;;5071939;28;20033;-27
2022/04/11 07:57:38;;;;;;;10.02;8.40;;;;;;;;;;5071606;28;20119;-27
2022/04/11 08:00:06;;;;;;;8.60;7.05;;;;;;;;;;5072734;28;20033;-28
2022/04/11 08:02:33;;;;;;;9.32;6.70;;;;;;;;;;5075807;28;20054;-29
2022/04/11 08:05:05;;;;;;;7.78;7.07;;;;;;;;;;5074952;28;20119;-26
2022/04/11 08:07:32;;;;;;;15.18;10.88;;;;;;;;;;5073508;28;20048;-27
2022/04/11 08:09:59;;;;;;;12.38;10.07;;;;;;;;;;5073768;28;20040;-30
2022/04/11 08:12:25;;;;;;;10.02;8.70;;;;;;;;;;5074265;28;20044;-28
2022/04/11 08:14:51;;;;;;;9.25;7.13;;;;;;;;;;5040694;28;20040;-28
2022/04/11 08:17:18;;;;;;;8.80;7.22;;;;;;;;;;5075180;28;20119;-29
2022/04/11 08:19:44;;;;;;;10.82;6.95;;;;;;;;;;5074965;28;20199;-28
2022/04/11 08:22:10;;;;;;;8.32;7.03;;;;;;;;;;5075306;28;20045;-28
2022/04/11 08:24:36;;;;;;;9.05;7.32;;;;;;;;;;5075549;28;20047;-30
2022/04/11 08:27:02;;;;;;;10.13;7.22;;;;;;;;;;5057812;28;20044;-28
2022/04/11 08:29:28;;;;;;;9.55;7.45;;;;;;;;;;5075624;28;20045;-28
2022/04/11 08:31:55;;;;;;;8.68;7.78;;;;;;;;;;5075503;28;20395;-27
2022/04/11 08:34:21;;;;;;;10.77;7.93;;;;;;;;;;5075466;28;20036;-28
2022/04/11 08:36:48;;;;;;;8.13;7.22;;;;;;;;;;5075248;28;20036;-28
2022/04/11 08:39:14;;;;;;;10.20;6.85;;;;;;;;;;5075296;28;20041;-29
2022/04/11 08:41:40;;;;;;;9.48;7.50;;;;;;;;;;5075221;28;20439;-29
2022/04/11 08:44:09;;;;;;;9.43;7.32;;;;;;;;;;5074952;28;20040;-27
2022/04/11 08:46:36;;;;;;;8.18;7.05;;;;;;;;;;5074959;28;20067;-28
2022/04/11 08:49:04;;;;;;;9.27;7.07;;;;;;;;;;5074969;28;20083;-28
2022/04/11 08:51:31;;;;;;;8.00;6.68;;;;;;;;;;5074844;28;20044;-29
2022/04/11 08:53:59;;;;;;;7.68;6.18;;;;;;;;;;5069671;28;20052;-29
2022/04/11 08:56:25;;;;;;;8.48;7.10;;;;;;;;;;5062809;28;20393;-30
2022/04/11 08:58:52;;;;;;;7.80;6.97;;;;;;;;;;5066257;28;20531;-31
2022/04/11 09:01:18;;;;;;;8.27;6.38;;;;;;;;;;5055513;28;20062;-30
2022/04/11 09:03:44;;;;;;;7.53;6.82;;;;;;;;;;5070937;28;20371;-31
2022/04/11 09:06:13;;;;;;;7.07;6.15;;;;;;;;;;5074064;28;20048;-30
2022/04/11 09:08:50;;;;;;;8.63;6.20;;;;;;;;;;5074046;28;20053;-30
2022/04/11 09:11:37;;;;;;;8.13;6.50;;;;;;;;;;5055028;28;20048;-30
2022/04/11 09:14:04;;;;;;;7.00;5.63;;;;;;;;;;5057727;28;20051;-30
2022/04/11 09:16:51;;;;;;;8.18;5.45;;;;;;;;;;5063175;28;20037;-30
2022/04/11 09:19:31;;;;;;;6.55;5.30;;;;;;;;;;5061130;28;20048;-31
2022/04/11 09:21:58;;;;;;;9.48;5.30;;;;;;;;;;5054164;28;20056;-31
2022/04/11 09:24:26;;;;;;;8.60;5.90;;;;;;;;;;5072429;28;20036;-30
2022/04/11 09:26:56;;;;;;;6.07;5.28;;;;;;;;;;5055729;28;20047;-31
2022/04/11 09:29:27;;;;;;;5.85;4.97;;;;;;;;;;5044747;28;20103;-31
2022/04/11 09:31:53;;;;;;;6.18;5.18;;;;;;;;;;5019600;28;20506;-31
2022/04/11 09:34:26;;;;;;;8.50;4.68;;;;;;;;;;5065592;28;20035;-36
2022/04/11 09:36:56;;;;;;;6.57;4.95;;;;;;;;;;5062700;28;20036;-33
2022/04/11 09:39:23;;;;;;;7.60;5.55;;;;;;;;;;5039752;28;20512;-31
2022/04/11 09:41:50;;;;;;;7.30;5.30;;;;;;;;;;5029783;28;20040;-31
2022/04/11 09:44:22;;;;;;;6.70;4.70;;;;;;;;;;5073538;28;20052;-31
2022/04/11 09:46:49;;;;;;;5.97;4.65;;;;;;;;;;5071365;28;20047;-31
2022/04/11 09:49:16;;;;;;;7.95;5.20;;;;;;;;;;5053671;28;20056;-32
2022/04/11 09:52:04;;;;;;;6.82;4.70;;;;;;;;;;5067686;28;22002;-32
2022/04/11 09:54:30;;;;;;;6.40;4.57;;;;;;;;;;5071388;28;20041;-31
2022/04/11 09:57:00;;;;;;;6.07;4.85;;;;;;;;;;5073422;28;20068;-32
2022/04/11 09:59:27;;;;;;;8.38;5.13;;;;;;;;;;5073968;28;20481;-31
2022/04/11 10:01:54;;;;;;;6.18;5.50;;;;;;;;;;5071038;28;20073;-32
2022/04/11 10:04:20;;;;;;;6.25;5.75;;;;;;;;;;5072441;28;20063;-32
2022/04/11 10:06:47;;;;;;;7.90;5.65;;;;;;;;;;5069579;28;20180;-31
2022/04/11 10:09:13;;;;;;;6.50;5.35;;;;;;;;;;5066096;28;20105;-31
2022/04/11 10:11:43;;;;;;;6.30;5.43;;;;;;;;;;5067658;28;20051;-33
2022/04/11 10:14:12;;;;;;;6.40;5.70;;;;;;;;;;5072417;28;20043;-32
2022/04/11 10:16:42;;;;;;;6.75;5.57;;;;;;;;;;5071547;28;20033;-31
2022/04/11 10:19:09;;;;;;;7.03;5.95;;;;;;;;;;5047178;28;20071;-34
2022/04/11 10:21:39;;;;;;;7.65;5.70;;;;;;;;;;5065497;28;20043;-34
2022/04/11 10:24:07;;;;;;;7.78;6.07;;;;;;;;;;5040794;28;20025;-32
2022/04/11 10:26:52;;;;;;;8.90;6.22;;;;;;;;;;5061574;28;20425;-32
2022/04/11 10:29:38;;;;;;;6.88;5.88;;;;;;;;;;5072737;28;20051;-33
2022/04/11 10:32:16;;;;;;;7.82;6.07;;;;;;;;;;5071315;28;20036;-31
2022/04/11 10:34:47;;;;;;;7.38;6.40;;;;;;;;;;5054464;28;20048;-32
2022/04/11 10:37:13;;;;;;;7.38;6.22;;;;;;;;;;5054539;28;20160;-32
2022/04/11 10:39:39;;;;;;;7.50;5.63;;;;;;;;;;5072971;28;20033;-31
2022/04/11 10:42:09;;;;;;;7.07;6.13;;;;;;;;;;5057663;28;20044;-30
2022/04/11 10:44:50;;;;;;;6.90;5.90;;;;;;;;;;5069366;28;20055;-32
2022/04/11 10:47:17;;;;;;;8.60;6.70;;;;;;;;;;5071863;28;20040;-32
2022/04/11 10:49:45;;;;;;;8.43;6.80;;;;;;;;;;5072289;28;20154;-32
2022/04/11 10:52:34;;;;;;;7.95;6.60;;;;;;;;;;5054043;28;20055;-31
2022/04/11 10:55:08;;;;;;;9.50;6.80;;;;;;;;;;5041819;28;20093;-31
2022/04/11 10:57:37;;;;;;;8.18;6.70;;;;;;;;;;5039391;28;20097;-31
2022/04/11 11:00:03;;;;;;;7.88;7.00;;;;;;;;;;5044550;28;20163;-31
2022/04/11 11:02:52;;;;;;;7.00;6.30;;;;;;;;;;5062180;28;20041;-31
2022/04/11 11:05:24;;;;;;;9.30;6.95;;;;;;;;;;5064160;28;20036;-31
2022/04/11 11:08:15;;;;;;;7.10;5.97;;;;;;;;;;5026023;28;20041;-31
2022/04/11 11:10:52;;;;;;;7.57;6.80;;;;;;;;;;5052260;28;20398;-30
2022/04/11 11:13:29;;;;;;;7.88;7.00;;;;;;;;;;5052642;28;20440;-30
2022/04/11 11:15:56;;;;;;;8.55;6.32;;;;;;;;;;5034904;28;20052;-29
2022/04/11 11:18:23;;;;;;;7.40;6.65;;;;;;;;;;5052507;28;20037;-29
2022/04/11 11:20:54;;;;;;;9.05;6.93;;;;;;;;;;5052247;28;20084;-30
2022/04/11 11:23:23;;;;;;;8.20;7.20;;;;;;;;;;5052419;28;20049;-30
2022/04/11 11:25:50;;;;;;;7.85;6.97;;;;;;;;;;5041951;28;20047;-34
2022/04/11 11:28:16;;;;;;;8.82;7.03;;;;;;;;;;5065428;28;20044;-36
2022/04/11 11:30:43;;;;;;;9.43;7.38;;;;;;;;;;5046941;28;20047;-35
2022/04/11 11:33:12;;;;;;;7.80;6.97;;;;;;;;;;5064662;28;20124;-32
2022/04/11 11:35:45;;;;;;;8.75;7.57;;;;;;;;;;5066356;28;20048;-32
2022/04/11 11:38:11;;;;;;;;;;;;;;;;;;5066126;28;20169;-36
2022/04/11 11:40:58;;;;;;;8.10;7.30;;;;;;;;;;5068298;28;19920;-34
2022/04/11 11:43:25;;;;;;;8.00;7.30;;;;;;;;;;5054599;28;20049;-33
2022/04/11 11:45:51;;;;;;;9.32;7.93;;;;;;;;;;5068352;28;20371;-35
2022/04/11 11:48:22;;;;;;;8.40;7.53;;;;;;;;;;5074019;28;20702;-33
2022/04/11 11:50:49;;;;;;;9.75;8.75;;;;;;;;;;5050628;28;20044;-34
2022/04/11 11:53:15;;;;;;;8.70;7.90;;;;;;;;;;5070860;28;20094;-34
2022/04/11 11:56:11;;;;;;;9.45;7.78;;;;;;;;;;5057620;28;20120;-36
2022/04/11 11:58:40;;;;;;;11.35;8.05;;;;;;;;;;5043966;28;20532;-33
2022/04/11 12:01:09;;;;;;;9.70;8.13;;;;;;;;;;5068715;28;20466;-31
2022/04/11 12:06:24;;;;;;;10.13;8.57;;;;;;;;;;5061988;28;20400;-33
2022/04/11 12:08:56;;;;;;;9.93;8.27;;;;;;;;;;5075384;28;20040;-34
2022/04/11 12:11:24;;;;;;;10.27;8.70;;;;;;;;;;5051303;28;20071;-32
2022/04/11 12:13:58;;;;;;;9.80;8.27;;;;;;;;;;5066339;28;20314;-32
2022/04/11 12:16:24;;;;;;;8.52;7.82;;;;;;;;;;5035650;28;20067;-33
2022/04/11 12:18:54;;;;;;;8.75;7.72;;;;;;;;;;5068772;28;20040;-32
2022/04/11 12:21:34;;;;;;;8.60;7.80;;;;;;;;;;5065640;28;20042;-33
2022/04/11 12:24:01;;;;;;;8.43;7.40;;;;;;;;;;5071689;28;20066;-32
2022/04/11 12:26:32;;;;;;;8.90;8.00;;;;;;;;;;5078242;28;20134;-30
2022/04/11 12:29:02;;;;;;;9.70;8.05;;;;;;;;;;5077626;28;20033;-32
2022/04/11 12:31:28;;;;;;;9.38;8.40;;;;;;;;;;5069978;28;20418;-36
2022/04/11 12:33:55;;;;;;;9.35;8.35;;;;;;;;;;5061122;28;20037;-33
2022/04/11 12:36:28;;;;;;;9.07;8.27;;;;;;;;;;5077287;28;20036;-34
2022/04/11 12:39:14;;;;;;;8.75;7.82;;;;;;;;;;5077399;28;20040;-33
2022/04/11 12:41:43;;;;;;;9.38;8.20;;;;;;;;;;5078125;28;20036;-35
2022/04/11 12:44:10;;;;;;;9.40;8.07;;;;;;;;;;5043525;28;20040;-36
2022/04/11 12:46:41;;;;;;;9.65;8.88;;;;;;;;;;5040273;28;20044;-34
2022/04/11 12:49:10;;;;;;;9.00;8.07;;;;;;;;;;5031080;28;20438;-34
2022/04/11 12:51:37;;;;;;;8.95;8.15;;;;;;;;;;5059181;28;20033;-32
2022/04/11 12:54:04;;;;;;;9.10;8.20;;;;;;;;;;5062381;28;20047;-33
2022/04/11 12:56:34;;;;;;;8.85;8.07;;;;;;;;;;5068424;28;20516;-33
2022/04/11 12:59:01;;;;;;;9.68;8.77;;;;;;;;;;5031457;28;20123;-33
2022/04/11 13:01:47;;;;;;;9.82;8.80;;;;;;;;;;5068458;28;20036;-34
2022/04/11 13:04:13;;;;;;;10.43;9.27;;;;;;;;;;5065837;28;20046;-35
2022/04/11 13:06:39;;;;;;;9.98;8.90;;;;;;;;;;5064574;28;20040;-34
2022/04/11 13:09:05;;;;;;;10.35;9.27;;;;;;;;;;5053020;28;20129;-34
2022/04/11 13:11:32;;;;;;;9.20;8.30;;;;;;;;;;5073510;28;20123;-33
2022/04/11 13:13:58;;;;;;;9.45;8.68;;;;;;;;;;5069233;28;20055;-36
2022/04/11 13:19:09;;;;;;;9.32;8.45;;;;;;;;;;5062613;28;20359;-33
2022/04/11 13:21:35;;;;;;;9.82;7.75;;;;;;;;;;5043561;28;20068;-33
2022/04/11 13:24:01;;;;;;;9.85;8.85;;;;;;;;;;5067428;28;20398;-34
2022/04/11 13:26:28;;;;;;;9.30;8.18;;;;;;;;;;5059363;28;20045;-31
2022/04/11 13:28:55;;;;;;;9.30;8.43;;;;;;;;;;5065589;28;20132;-32
2022/04/11 13:31:21;;;;;;;9.68;8.65;;;;;;;;;;5062838;28;20044;-34
2022/04/11 13:33:47;;;;;;;9.52;8.52;;;;;;;;;;5059653;28;20128;-34
2022/04/11 13:36:13;;;;;;;9.80;8.77;;;;;;;;;;5056878;28;20434;-35
2022/04/11 13:38:41;;;;;;;8.95;8.05;;;;;;;;;;5053701;28;20069;-33
2022/04/11 13:41:07;;;;;;;9.77;8.98;;;;;;;;;;5054655;28;20490;-34
2022/04/11 13:43:33;;;;;;;9.85;8.93;;;;;;;;;;5073318;28;20098;-31
2022/04/11 13:46:01;;;;;;;10.80;9.80;;;;;;;;;;5070209;28;20039;-36
2022/04/11 13:48:28;;;;;;;9.68;8.93;;;;;;;;;;5072797;28;20040;-35
2022/04/11 13:50:54;;;;;;;10.07;9.20;;;;;;;;;;5064396;28;20043;-34
2022/04/11 13:53:20;;;;;;;9.65;8.73;;;;;;;;;;5072109;28;20040;-33
2022/04/11 13:55:46;;;;;;;10.43;9.45;;;;;;;;;;5071791;28;20037;-33
2022/04/11 13:58:13;;;;;;;10.18;9.38;;;;;;;;;;5065427;28;20040;-34
2022/04/11 14:00:41;;;;;;;11.05;10.07;;;;;;;;;;5060780;28;20060;-32
2022/04/11 14:03:10;;;;;;;9.82;8.93;;;;;;;;;;5060887;28;20170;-35
2022/04/11 14:05:37;;;;;;;11.18;10.18;;;;;;;;;;5065406;28;20063;-35
2022/04/11 14:08:03;;;;;;;11.40;10.38;;;;;;;;;;5052307;28;20106;-33
2022/04/11 14:10:29;;;;;;;10.25;9.35;;;;;;;;;;5069088;28;20500;-34
2022/04/11 14:12:55;;;;;;;11.13;10.02;;;;;;;;;;5063969;28;20410;-35
2022/04/11 14:15:21;;;;;;;10.40;9.45;;;;;;;;;;5067247;28;20033;-35
2022/04/11 14:17:47;;;;;;;10.48;9.48;;;;;;;;;;5062889;28;20546;-34
2022/04/11 14:20:13;;;;;;;10.80;9.70;;;;;;;;;;5062214;28;20116;-35
2022/04/11 14:22:39;;;;;;;10.07;9.07;;;;;;;;;;5059824;28;20043;-34
2022/04/11 14:25:06;;;;;;;10.75;9.77;;;;;;;;;;5052523;28;20520;-34
2022/04/11 14:27:32;;;;;;;11.10;10.18;;;;;;;;;;5070603;28;20481;-33
2022/04/11 14:29:59;;;;;;;10.15;9.30;;;;;;;;;;5069965;28;20047;-33
2022/04/11 14:32:25;;;;;;;10.45;9.57;;;;;;;;;;5070398;28;20055;-32
2022/04/11 14:34:51;;;;;;;10.45;9.55;;;;;;;;;;5070057;28;20040;-31
2022/04/11 14:37:17;;;;;;;10.57;9.57;;;;;;;;;;5065719;28;20040;-34
2022/04/11 14:39:43;;;;;;;10.57;9.63;;;;;;;;;;5066018;28;20285;-31
2022/04/11 14:42:11;;;;;;;10.07;9.07;;;;;;;;;;5066341;28;20478;-33
2022/04/11 14:44:37;;;;;;;11.07;9.98;;;;;;;;;;5067882;28;20048;-32
2022/04/11 14:47:05;;;;;;;9.68;8.77;;;;;;;;;;5068408;28;20402;-33
2022/04/11 14:49:31;;;;;;;9.95;9.05;;;;;;;;;;5068889;28;20631;-29